sensor_id;sensor_type;location;lat;lon;timestamp;temperature;humidity
6054;DHT22;3055;50.886;14.814;2024-03-25T00:01:03;5.30;99.90
6054;DHT22;3055;50.886;14.814;2024-03-25T00:03:30;5.40;99.90
6054;DHT22;3055;50.886;14.814;2024-03-25T00:05:58;5.50;99.90
6054;DHT22;3055;50.886;14.814;2024-03-25T00:08:25;5.50;99.90
6054;DHT22;3055;50.886;14.814;2024-03-25T00:10:51;5.50;99.90
6054;DHT22;3055;50.886;14.814;2024-03-25T00:13:18;5.50;99.90
6054;DHT22;3055;50.886;14.814;2024-03-25T00:15:45;5.50;99.90
6054;DHT22;3055;50.886;14.814;2024-03-25T00:18:13;5.50;99.90
6054;DHT22;3055;50.886;14.814;2024-03-25T00:20:39;5.60;99.90
6054;DHT22;3055;50.886;14.814;2024-03-25T00:23:07;5.60;99.90
6054;DHT22;3055;50.886;14.814;2024-03-25T00:25:33;5.60;99.90
6054;DHT22;3055;50.886;14.814;2024-03-25T00:28:00;5.60;99.90
6054;DHT22;3055;50.886;14.814;2024-03-25T00:30:27;5.60;99.90
6054;DHT22;3055;50.886;14.814;2024-03-25T00:32:54;5.60;99.90
6054;DHT22;3055;50.886;14.814;2024-03-25T00:35:20;5.60;99.90
6054;DHT22;3055;50.886;14.814;2024-03-25T00:37:48;5.60;99.90
6054;DHT22;3055;50.886;14.814;2024-03-25T00:40:16;5.60;99.90
6054;DHT22;3055;50.886;14.814;2024-03-25T00:42:43;5.70;99.90
6054;DHT22;3055;50.886;14.814;2024-03-25T00:45:09;5.70;99.90
6054;DHT22;3055;50.886;14.814;2024-03-25T00:47:36;5.60;99.90
6054;DHT22;3055;50.886;14.814;2024-03-25T00:50:03;5.60;99.90
6054;DHT22;3055;50.886;14.814;2024-03-25T00:52:30;5.60;99.90
6054;DHT22;3055;50.886;14.814;2024-03-25T00:54:56;5.70;99.90
6054;DHT22;3055;50.886;14.814;2024-03-25T00:57:25;5.70;99.90
6054;DHT22;3055;50.886;14.814;2024-03-25T00:59:51;5.70;99.90
6054;DHT22;3055;50.886;14.814;2024-03-25T01:02:18;5.70;99.90
6054;DHT22;3055;50.886;14.814;2024-03-25T01:04:44;5.70;99.90
6054;DHT22;3055;50.886;14.814;2024-03-25T01:07:11;5.60;99.90
6054;DHT22;3055;50.886;14.814;2024-03-25T01:09:37;5.60;99.90
6054;DHT22;3055;50.886;14.814;2024-03-25T01:12:05;5.60;99.90
6054;DHT22;3055;50.886;14.814;2024-03-25T01:14:32;5.60;99.90
6054;DHT22;3055;50.886;14.814;2024-03-25T01:16:59;5.60;99.90
6054;DHT22;3055;50.886;14.814;2024-03-25T01:19:26;5.60;99.90
6054;DHT22;3055;50.886;14.814;2024-03-25T01:21:53;5.60;99.90
6054;DHT22;3055;50.886;14.814;2024-03-25T01:24:19;5.50;99.90
6054;DHT22;3055;50.886;14.814;2024-03-25T01:26:46;5.50;99.90
6054;DHT22;3055;50.886;14.814;2024-03-25T01:29:12;5.40;99.90
6054;DHT22;3055;50.886;14.814;2024-03-25T01:31:41;5.40;99.90
6054;DHT22;3055;50.886;14.814;2024-03-25T01:34:07;5.50;99.90
6054;DHT22;3055;50.886;14.814;2024-03-25T01:36:34;5.50;99.90
6054;DHT22;3055;50.886;14.814;2024-03-25T01:39:02;5.40;99.90
6054;DHT22;3055;50.886;14.814;2024-03-25T01:41:30;5.40;99.90
6054;DHT22;3055;50.886;14.814;2024-03-25T01:43:56;5.40;99.90
6054;DHT22;3055;50.886;14.814;2024-03-25T01:46:23;5.40;99.90
6054;DHT22;3055;50.886;14.814;2024-03-25T01:48:52;5.40;99.90
6054;DHT22;3055;50.886;14.814;2024-03-25T01:51:20;5.40;99.90
6054;DHT22;3055;50.886;14.814;2024-03-25T01:53:48;5.50;99.90
6054;DHT22;3055;50.886;14.814;2024-03-25T01:56:15;5.50;99.90
6054;DHT22;3055;50.886;14.814;2024-03-25T01:58:42;5.40;99.90
6054;DHT22;3055;50.886;14.814;2024-03-25T02:01:10;5.40;99.90
6054;DHT22;3055;50.886;14.814;2024-03-25T02:03:39;5.40;99.90
6054;DHT22;3055;50.886;14.814;2024-03-25T02:06:12;5.40;99.90
6054;DHT22;3055;50.886;14.814;2024-03-25T02:08:39;5.30;99.90
6054;DHT22;3055;50.886;14.814;2024-03-25T02:11:07;5.30;99.90
6054;DHT22;3055;50.886;14.814;2024-03-25T02:13:34;5.30;99.90
6054;DHT22;3055;50.886;14.814;2024-03-25T02:16:02;5.30;99.90
6054;DHT22;3055;50.886;14.814;2024-03-25T02:18:28;5.20;99.90
6054;DHT22;3055;50.886;14.814;2024-03-25T02:20:56;5.20;99.90
6054;DHT22;3055;50.886;14.814;2024-03-25T02:23:24;5.20;99.90
6054;DHT22;3055;50.886;14.814;2024-03-25T02:25:53;5.20;99.90
6054;DHT22;3055;50.886;14.814;2024-03-25T02:28:20;5.10;99.90
6054;DHT22;3055;50.886;14.814;2024-03-25T02:30:47;5.20;99.90
6054;DHT22;3055;50.886;14.814;2024-03-25T02:33:13;5.10;99.90
6054;DHT22;3055;50.886;14.814;2024-03-25T02:35:42;5.10;99.90
6054;DHT22;3055;50.886;14.814;2024-03-25T02:38:09;5.10;99.90
6054;DHT22;3055;50.886;14.814;2024-03-25T02:40:37;5.10;99.90
6054;DHT22;3055;50.886;14.814;2024-03-25T02:43:05;4.90;99.90
6054;DHT22;3055;50.886;14.814;2024-03-25T02:45:33;4.90;99.90
6054;DHT22;3055;50.886;14.814;2024-03-25T02:47:59;4.80;99.90
6054;DHT22;3055;50.886;14.814;2024-03-25T02:50:26;4.70;99.90
6054;DHT22;3055;50.886;14.814;2024-03-25T02:52:52;4.70;99.90
6054;DHT22;3055;50.886;14.814;2024-03-25T02:55:19;4.70;99.90
6054;DHT22;3055;50.886;14.814;2024-03-25T02:57:45;4.60;99.90
6054;DHT22;3055;50.886;14.814;2024-03-25T03:00:14;4.60;99.90
6054;DHT22;3055;50.886;14.814;2024-03-25T03:02:40;4.70;99.90
6054;DHT22;3055;50.886;14.814;2024-03-25T03:05:08;4.70;99.90
6054;DHT22;3055;50.886;14.814;2024-03-25T03:07:34;4.80;99.90
6054;DHT22;3055;50.886;14.814;2024-03-25T03:10:01;4.90;99.90
6054;DHT22;3055;50.886;14.814;2024-03-25T03:12:27;4.90;99.90
6054;DHT22;3055;50.886;14.814;2024-03-25T03:14:54;4.90;99.90
6054;DHT22;3055;50.886;14.814;2024-03-25T03:17:22;5.00;99.90
6054;DHT22;3055;50.886;14.814;2024-03-25T03:19:49;5.00;99.90
6054;DHT22;3055;50.886;14.814;2024-03-25T03:22:15;5.00;99.90
6054;DHT22;3055;50.886;14.814;2024-03-25T03:24:42;5.00;99.90
6054;DHT22;3055;50.886;14.814;2024-03-25T03:27:08;5.00;99.90
6054;DHT22;3055;50.886;14.814;2024-03-25T03:29:35;5.00;99.90
6054;DHT22;3055;50.886;14.814;2024-03-25T03:32:01;5.00;99.90
6054;DHT22;3055;50.886;14.814;2024-03-25T03:34:30;5.00;99.90
6054;DHT22;3055;50.886;14.814;2024-03-25T03:36:56;5.00;99.90
6054;DHT22;3055;50.886;14.814;2024-03-25T03:39:23;5.00;99.90
6054;DHT22;3055;50.886;14.814;2024-03-25T03:41:50;5.00;99.90
6054;DHT22;3055;50.886;14.814;2024-03-25T03:44:17;5.00;99.90
6054;DHT22;3055;50.886;14.814;2024-03-25T03:46:43;5.00;99.90
6054;DHT22;3055;50.886;14.814;2024-03-25T03:49:10;5.00;99.90
6054;DHT22;3055;50.886;14.814;2024-03-25T03:51:37;4.90;99.90
6054;DHT22;3055;50.886;14.814;2024-03-25T03:54:04;4.90;99.90
6054;DHT22;3055;50.886;14.814;2024-03-25T03:56:30;4.90;99.90
6054;DHT22;3055;50.886;14.814;2024-03-25T03:58:58;4.90;99.90
6054;DHT22;3055;50.886;14.814;2024-03-25T04:01:24;4.90;99.90
6054;DHT22;3055;50.886;14.814;2024-03-25T04:03:51;4.90;99.90
6054;DHT22;3055;50.886;14.814;2024-03-25T04:06:17;4.80;99.90
6054;DHT22;3055;50.886;14.814;2024-03-25T04:08:46;4.80;99.90
6054;DHT22;3055;50.886;14.814;2024-03-25T04:11:12;4.80;99.90
6054;DHT22;3055;50.886;14.814;2024-03-25T04:13:39;4.80;99.90
6054;DHT22;3055;50.886;14.814;2024-03-25T04:16:06;4.80;99.90
6054;DHT22;3055;50.886;14.814;2024-03-25T04:18:33;4.70;99.90
6054;DHT22;3055;50.886;14.814;2024-03-25T04:20:59;4.70;99.90
6054;DHT22;3055;50.886;14.814;2024-03-25T04:23:27;4.70;99.90
6054;DHT22;3055;50.886;14.814;2024-03-25T04:25:54;4.70;99.90
6054;DHT22;3055;50.886;14.814;2024-03-25T04:28:21;4.70;99.90
6054;DHT22;3055;50.886;14.814;2024-03-25T04:30:51;4.70;99.90
6054;DHT22;3055;50.886;14.814;2024-03-25T04:33:19;4.60;99.90
6054;DHT22;3055;50.886;14.814;2024-03-25T04:35:46;4.60;99.90
6054;DHT22;3055;50.886;14.814;2024-03-25T04:38:15;4.60;99.90
6054;DHT22;3055;50.886;14.814;2024-03-25T04:40:41;4.60;99.90
6054;DHT22;3055;50.886;14.814;2024-03-25T04:43:09;4.60;99.90
6054;DHT22;3055;50.886;14.814;2024-03-25T04:45:35;4.60;99.90
6054;DHT22;3055;50.886;14.814;2024-03-25T04:48:01;4.60;99.90
6054;DHT22;3055;50.886;14.814;2024-03-25T04:50:27;4.60;99.90
6054;DHT22;3055;50.886;14.814;2024-03-25T04:52:53;4.60;99.90
6054;DHT22;3055;50.886;14.814;2024-03-25T04:55:19;4.60;99.90
6054;DHT22;3055;50.886;14.814;2024-03-25T04:57:45;4.60;99.90
6054;DHT22;3055;50.886;14.814;2024-03-25T05:00:14;4.70;99.90
6054;DHT22;3055;50.886;14.814;2024-03-25T05:02:40;4.70;99.90
6054;DHT22;3055;50.886;14.814;2024-03-25T05:05:06;4.80;99.90
6054;DHT22;3055;50.886;14.814;2024-03-25T05:07:33;4.70;99.90
6054;DHT22;3055;50.886;14.814;2024-03-25T05:09:59;4.80;99.90
6054;DHT22;3055;50.886;14.814;2024-03-25T05:12:25;4.80;99.90
6054;DHT22;3055;50.886;14.814;2024-03-25T05:14:51;4.90;99.90
6054;DHT22;3055;50.886;14.814;2024-03-25T05:17:19;5.00;99.90
6054;DHT22;3055;50.886;14.814;2024-03-25T05:19:45;5.00;99.90
6054;DHT22;3055;50.886;14.814;2024-03-25T05:22:11;5.00;99.90
6054;DHT22;3055;50.886;14.814;2024-03-25T05:24:37;5.10;99.90
6054;DHT22;3055;50.886;14.814;2024-03-25T05:27:03;5.10;99.90
6054;DHT22;3055;50.886;14.814;2024-03-25T05:29:29;5.10;99.90
6054;DHT22;3055;50.886;14.814;2024-03-25T05:31:57;5.10;99.90
6054;DHT22;3055;50.886;14.814;2024-03-25T05:34:25;5.10;99.90
6054;DHT22;3055;50.886;14.814;2024-03-25T05:36:51;5.20;99.90
6054;DHT22;3055;50.886;14.814;2024-03-25T05:39:17;5.20;99.90
6054;DHT22;3055;50.886;14.814;2024-03-25T05:41:44;5.20;99.90
6054;DHT22;3055;50.886;14.814;2024-03-25T05:44:10;5.30;99.90
6054;DHT22;3055;50.886;14.814;2024-03-25T05:46:36;5.30;99.90
6054;DHT22;3055;50.886;14.814;2024-03-25T05:49:03;5.40;99.90
6054;DHT22;3055;50.886;14.814;2024-03-25T05:51:30;5.40;99.90
6054;DHT22;3055;50.886;14.814;2024-03-25T05:53:57;5.50;98.40
6054;DHT22;3055;50.886;14.814;2024-03-25T05:56:23;5.50;96.40
6054;DHT22;3055;50.886;14.814;2024-03-25T05:58:49;5.60;19.60
6054;DHT22;3055;50.886;14.814;2024-03-25T06:01:15;5.60;1.00
6054;DHT22;3055;50.886;14.814;2024-03-25T06:03:41;5.60;3.20
6054;DHT22;3055;50.886;14.814;2024-03-25T06:06:07;5.70;1.00
6054;DHT22;3055;50.886;14.814;2024-03-25T06:08:34;5.70;1.00
6054;DHT22;3055;50.886;14.814;2024-03-25T06:11:01;5.70;1.00
6054;DHT22;3055;50.886;14.814;2024-03-25T06:13:27;5.80;1.00
6054;DHT22;3055;50.886;14.814;2024-03-25T06:15:53;5.80;1.00
6054;DHT22;3055;50.886;14.814;2024-03-25T06:18:20;5.90;1.00
6054;DHT22;3055;50.886;14.814;2024-03-25T06:20:46;5.90;1.00
6054;DHT22;3055;50.886;14.814;2024-03-25T06:23:22;6.00;1.00
6054;DHT22;3055;50.886;14.814;2024-03-25T06:25:51;6.00;1.00
6054;DHT22;3055;50.886;14.814;2024-03-25T06:28:17;6.10;1.00
6054;DHT22;3055;50.886;14.814;2024-03-25T06:30:44;6.20;1.00
6054;DHT22;3055;50.886;14.814;2024-03-25T06:33:28;6.20;1.00
6054;DHT22;3055;50.886;14.814;2024-03-25T06:36:12;6.20;1.00
6054;DHT22;3055;50.886;14.814;2024-03-25T06:38:39;6.20;1.00
6054;DHT22;3055;50.886;14.814;2024-03-25T06:41:07;6.30;1.00
6054;DHT22;3055;50.886;14.814;2024-03-25T06:43:33;6.30;1.00
6054;DHT22;3055;50.886;14.814;2024-03-25T06:45:59;6.30;1.00
6054;DHT22;3055;50.886;14.814;2024-03-25T06:48:25;6.30;1.00
6054;DHT22;3055;50.886;14.814;2024-03-25T06:50:55;6.30;1.00
6054;DHT22;3055;50.886;14.814;2024-03-25T06:53:21;6.30;99.90
6054;DHT22;3055;50.886;14.814;2024-03-25T06:55:54;6.40;99.90
6054;DHT22;3055;50.886;14.814;2024-03-25T06:58:23;6.40;99.90
6054;DHT22;3055;50.886;14.814;2024-03-25T07:00:49;6.40;99.90
6054;DHT22;3055;50.886;14.814;2024-03-25T07:03:16;6.40;66.10
6054;DHT22;3055;50.886;14.814;2024-03-25T07:05:44;6.40;34.30
6054;DHT22;3055;50.886;14.814;2024-03-25T07:08:10;6.40;1.00
6054;DHT22;3055;50.886;14.814;2024-03-25T07:10:37;6.40;99.90
6054;DHT22;3055;50.886;14.814;2024-03-25T07:13:03;6.50;99.90
6054;DHT22;3055;50.886;14.814;2024-03-25T07:15:31;6.50;99.90
6054;DHT22;3055;50.886;14.814;2024-03-25T07:17:57;6.50;99.90
6054;DHT22;3055;50.886;14.814;2024-03-25T07:20:23;6.50;99.90
6054;DHT22;3055;50.886;14.814;2024-03-25T07:22:49;6.50;1.00
6054;DHT22;3055;50.886;14.814;2024-03-25T07:25:16;6.50;99.90
6054;DHT22;3055;50.886;14.814;2024-03-25T07:27:42;6.50;1.00
6054;DHT22;3055;50.886;14.814;2024-03-25T07:30:08;6.40;99.90
6054;DHT22;3055;50.886;14.814;2024-03-25T07:32:36;6.40;99.90
6054;DHT22;3055;50.886;14.814;2024-03-25T07:35:02;6.40;99.90
6054;DHT22;3055;50.886;14.814;2024-03-25T07:37:28;6.40;99.90
6054;DHT22;3055;50.886;14.814;2024-03-25T07:39:54;6.40;99.90
6054;DHT22;3055;50.886;14.814;2024-03-25T07:42:20;6.50;1.00
6054;DHT22;3055;50.886;14.814;2024-03-25T07:44:46;6.50;1.00
6054;DHT22;3055;50.886;14.814;2024-03-25T07:47:12;6.60;99.90
6054;DHT22;3055;50.886;14.814;2024-03-25T07:49:40;6.60;1.00
6054;DHT22;3055;50.886;14.814;2024-03-25T07:52:06;6.70;99.90
6054;DHT22;3055;50.886;14.814;2024-03-25T07:54:32;6.70;99.90
6054;DHT22;3055;50.886;14.814;2024-03-25T07:56:59;6.70;1.00
6054;DHT22;3055;50.886;14.814;2024-03-25T07:59:25;6.70;1.00
6054;DHT22;3055;50.886;14.814;2024-03-25T08:01:51;6.70;1.00
6054;DHT22;3055;50.886;14.814;2024-03-25T08:04:17;6.70;37.20
6054;DHT22;3055;50.886;14.814;2024-03-25T08:06:44;6.70;1.00
6054;DHT22;3055;50.886;14.814;2024-03-25T08:09:10;6.70;1.00
6054;DHT22;3055;50.886;14.814;2024-03-25T08:11:36;6.70;99.90
6054;DHT22;3055;50.886;14.814;2024-03-25T08:14:03;6.70;99.90
6054;DHT22;3055;50.886;14.814;2024-03-25T08:16:29;6.70;1.00
6054;DHT22;3055;50.886;14.814;2024-03-25T08:18:55;6.70;1.00
6054;DHT22;3055;50.886;14.814;2024-03-25T08:21:22;6.70;14.10
6054;DHT22;3055;50.886;14.814;2024-03-25T08:23:50;6.80;1.00
6054;DHT22;3055;50.886;14.814;2024-03-25T08:26:16;6.80;1.00
6054;DHT22;3055;50.886;14.814;2024-03-25T08:28:42;6.80;99.90
6054;DHT22;3055;50.886;14.814;2024-03-25T08:31:08;6.90;1.00
6054;DHT22;3055;50.886;14.814;2024-03-25T08:33:34;6.90;99.90
6054;DHT22;3055;50.886;14.814;2024-03-25T08:36:00;7.00;99.90
6054;DHT22;3055;50.886;14.814;2024-03-25T08:38:26;7.00;1.00
6054;DHT22;3055;50.886;14.814;2024-03-25T08:40:54;7.00;1.00
6054;DHT22;3055;50.886;14.814;2024-03-25T08:43:20;7.10;99.90
6054;DHT22;3055;50.886;14.814;2024-03-25T08:45:46;7.00;99.90
6054;DHT22;3055;50.886;14.814;2024-03-25T08:48:12;7.10;99.90
6054;DHT22;3055;50.886;14.814;2024-03-25T08:50:38;7.30;99.90
6054;DHT22;3055;50.886;14.814;2024-03-25T08:53:04;7.40;1.00
6054;DHT22;3055;50.886;14.814;2024-03-25T08:55:31;7.50;99.90
6054;DHT22;3055;50.886;14.814;2024-03-25T08:57:58;7.60;8.10
6054;DHT22;3055;50.886;14.814;2024-03-25T09:00:24;7.80;1.00
6054;DHT22;3055;50.886;14.814;2024-03-25T09:02:51;7.90;1.00
6054;DHT22;3055;50.886;14.814;2024-03-25T09:05:17;8.30;1.00
6054;DHT22;3055;50.886;14.814;2024-03-25T09:07:44;8.80;99.90
6054;DHT22;3055;50.886;14.814;2024-03-25T09:10:10;9.20;99.90
6054;DHT22;3055;50.886;14.814;2024-03-25T09:12:55;9.50;1.00
6054;DHT22;3055;50.886;14.814;2024-03-25T09:15:22;9.60;99.90
6054;DHT22;3055;50.886;14.814;2024-03-25T09:17:48;9.50;99.90
6054;DHT22;3055;50.886;14.814;2024-03-25T09:20:14;9.40;99.90
6054;DHT22;3055;50.886;14.814;2024-03-25T09:22:42;9.30;99.90
6054;DHT22;3055;50.886;14.814;2024-03-25T09:25:08;9.40;1.00
6054;DHT22;3055;50.886;14.814;2024-03-25T09:27:34;9.50;99.90
6054;DHT22;3055;50.886;14.814;2024-03-25T09:30:01;9.50;99.90
6054;DHT22;3055;50.886;14.814;2024-03-25T09:32:28;9.50;99.90
6054;DHT22;3055;50.886;14.814;2024-03-25T09:34:55;9.40;99.90
6054;DHT22;3055;50.886;14.814;2024-03-25T09:37:21;9.40;99.90
6054;DHT22;3055;50.886;14.814;2024-03-25T09:39:47;9.40;99.90
6054;DHT22;3055;50.886;14.814;2024-03-25T09:42:15;9.50;99.90
6054;DHT22;3055;50.886;14.814;2024-03-25T09:44:45;9.80;99.90
6054;DHT22;3055;50.886;14.814;2024-03-25T09:47:11;9.90;99.90
6054;DHT22;3055;50.886;14.814;2024-03-25T09:49:40;9.90;99.90
6054;DHT22;3055;50.886;14.814;2024-03-25T09:52:06;9.90;99.90
6054;DHT22;3055;50.886;14.814;2024-03-25T09:54:33;9.90;99.90
6054;DHT22;3055;50.886;14.814;2024-03-25T09:57:00;9.80;99.90
6054;DHT22;3055;50.886;14.814;2024-03-25T09:59:27;9.80;99.90
6054;DHT22;3055;50.886;14.814;2024-03-25T10:01:54;9.80;99.90
6054;DHT22;3055;50.886;14.814;2024-03-25T10:04:20;9.60;99.90
6054;DHT22;3055;50.886;14.814;2024-03-25T10:06:48;9.20;99.90
6054;DHT22;3055;50.886;14.814;2024-03-25T10:09:19;9.20;99.90
6054;DHT22;3055;50.886;14.814;2024-03-25T10:11:47;9.20;99.90
6054;DHT22;3055;50.886;14.814;2024-03-25T10:14:15;9.30;99.90
6054;DHT22;3055;50.886;14.814;2024-03-25T10:16:41;9.40;99.90
6054;DHT22;3055;50.886;14.814;2024-03-25T10:19:07;9.40;99.90
6054;DHT22;3055;50.886;14.814;2024-03-25T10:21:33;9.60;99.90
6054;DHT22;3055;50.886;14.814;2024-03-25T10:24:01;9.70;99.90
6054;DHT22;3055;50.886;14.814;2024-03-25T10:26:31;9.70;99.90
6054;DHT22;3055;50.886;14.814;2024-03-25T10:29:02;9.90;99.90
6054;DHT22;3055;50.886;14.814;2024-03-25T10:31:29;9.90;99.90
6054;DHT22;3055;50.886;14.814;2024-03-25T10:33:55;9.90;99.90
6054;DHT22;3055;50.886;14.814;2024-03-25T10:36:21;9.90;99.90
6054;DHT22;3055;50.886;14.814;2024-03-25T10:38:49;10.10;99.90
6054;DHT22;3055;50.886;14.814;2024-03-25T10:41:21;10.10;99.90
6054;DHT22;3055;50.886;14.814;2024-03-25T10:43:47;10.10;99.90
6054;DHT22;3055;50.886;14.814;2024-03-25T10:46:18;10.00;99.90
6054;DHT22;3055;50.886;14.814;2024-03-25T10:48:51;9.80;99.90
6054;DHT22;3055;50.886;14.814;2024-03-25T10:51:21;9.50;99.90
6054;DHT22;3055;50.886;14.814;2024-03-25T10:53:49;9.20;99.90
6054;DHT22;3055;50.886;14.814;2024-03-25T10:56:20;8.80;99.90
6054;DHT22;3055;50.886;14.814;2024-03-25T10:58:48;8.30;99.90
6054;DHT22;3055;50.886;14.814;2024-03-25T11:01:16;7.90;99.90
6054;DHT22;3055;50.886;14.814;2024-03-25T11:03:43;7.70;99.90
6054;DHT22;3055;50.886;14.814;2024-03-25T11:06:09;7.60;1.00
6054;DHT22;3055;50.886;14.814;2024-03-25T11:08:36;7.80;99.90
6054;DHT22;3055;50.886;14.814;2024-03-25T11:11:03;7.90;99.90
6054;DHT22;3055;50.886;14.814;2024-03-25T11:13:31;8.10;1.00
6054;DHT22;3055;50.886;14.814;2024-03-25T11:15:58;8.30;99.90
6054;DHT22;3055;50.886;14.814;2024-03-25T11:18:25;8.50;99.90
6054;DHT22;3055;50.886;14.814;2024-03-25T11:21:01;8.80;1.00
6054;DHT22;3055;50.886;14.814;2024-03-25T11:23:35;9.00;99.90
6054;DHT22;3055;50.886;14.814;2024-03-25T11:26:02;9.30;99.90
6054;DHT22;3055;50.886;14.814;2024-03-25T11:28:30;9.50;99.90
6054;DHT22;3055;50.886;14.814;2024-03-25T11:30:56;9.70;64.00
6054;DHT22;3055;50.886;14.814;2024-03-25T11:33:22;9.90;99.90
6054;DHT22;3055;50.886;14.814;2024-03-25T11:35:49;9.90;99.90
6054;DHT22;3055;50.886;14.814;2024-03-25T11:38:15;10.10;1.00
6054;DHT22;3055;50.886;14.814;2024-03-25T11:40:43;10.20;1.00
6054;DHT22;3055;50.886;14.814;2024-03-25T11:43:18;10.40;1.00
6054;DHT22;3055;50.886;14.814;2024-03-25T11:45:48;10.80;1.00
6054;DHT22;3055;50.886;14.814;2024-03-25T11:48:14;11.00;1.00
6054;DHT22;3055;50.886;14.814;2024-03-25T11:50:41;11.10;99.90
6054;DHT22;3055;50.886;14.814;2024-03-25T11:53:07;11.10;99.90
6054;DHT22;3055;50.886;14.814;2024-03-25T11:55:34;11.30;99.90
6054;DHT22;3055;50.886;14.814;2024-03-25T11:58:00;11.70;99.90
6054;DHT22;3055;50.886;14.814;2024-03-25T12:00:26;11.90;99.90
6054;DHT22;3055;50.886;14.814;2024-03-25T12:02:54;11.80;99.90
6054;DHT22;3055;50.886;14.814;2024-03-25T12:05:20;11.50;99.90
6054;DHT22;3055;50.886;14.814;2024-03-25T12:07:46;11.20;99.90
6054;DHT22;3055;50.886;14.814;2024-03-25T12:10:12;11.10;97.10
6054;DHT22;3055;50.886;14.814;2024-03-25T12:12:57;11.00;65.80
6054;DHT22;3055;50.886;14.814;2024-03-25T12:15:23;10.80;76.80
6054;DHT22;3055;50.886;14.814;2024-03-25T12:17:50;10.70;59.70
6054;DHT22;3055;50.886;14.814;2024-03-25T12:20:19;10.60;73.20
6054;DHT22;3055;50.886;14.814;2024-03-25T12:22:45;10.70;76.80
6054;DHT22;3055;50.886;14.814;2024-03-25T12:25:11;10.80;63.90
6054;DHT22;3055;50.886;14.814;2024-03-25T12:27:39;10.50;46.60
6054;DHT22;3055;50.886;14.814;2024-03-25T12:30:07;10.50;60.30
6054;DHT22;3055;50.886;14.814;2024-03-25T12:32:37;10.40;72.40
6054;DHT22;3055;50.886;14.814;2024-03-25T12:35:07;10.20;46.60
6054;DHT22;3055;50.886;14.814;2024-03-25T12:37:36;10.00;48.80
6054;DHT22;3055;50.886;14.814;2024-03-25T12:40:04;9.80;35.60
6054;DHT22;3055;50.886;14.814;2024-03-25T12:42:31;9.60;49.10
6054;DHT22;3055;50.886;14.814;2024-03-25T12:44:57;9.40;58.30
6054;DHT22;3055;50.886;14.814;2024-03-25T12:47:23;9.20;59.20
6054;DHT22;3055;50.886;14.814;2024-03-25T12:49:49;9.20;91.00
6054;DHT22;3055;50.886;14.814;2024-03-25T12:52:15;9.30;99.50
6054;DHT22;3055;50.886;14.814;2024-03-25T12:54:43;9.30;94.40
6054;DHT22;3055;50.886;14.814;2024-03-25T12:57:10;9.40;90.40
6054;DHT22;3055;50.886;14.814;2024-03-25T12:59:37;9.50;84.10
6054;DHT22;3055;50.886;14.814;2024-03-25T13:02:03;9.50;73.10
6054;DHT22;3055;50.886;14.814;2024-03-25T13:04:29;9.40;70.90
6054;DHT22;3055;50.886;14.814;2024-03-25T13:06:55;9.50;94.20
6054;DHT22;3055;50.886;14.814;2024-03-25T13:09:21;9.60;87.60
6054;DHT22;3055;50.886;14.814;2024-03-25T13:11:48;9.70;72.40
6054;DHT22;3055;50.886;14.814;2024-03-25T13:14:14;9.70;66.40
6054;DHT22;3055;50.886;14.814;2024-03-25T13:16:41;9.70;57.60
6054;DHT22;3055;50.886;14.814;2024-03-25T13:19:07;9.80;46.10
6054;DHT22;3055;50.886;14.814;2024-03-25T13:21:33;9.90;45.30
6054;DHT22;3055;50.886;14.814;2024-03-25T13:23:59;10.00;44.40
6054;DHT22;3055;50.886;14.814;2024-03-25T13:26:26;10.10;36.60
6054;DHT22;3055;50.886;14.814;2024-03-25T13:28:53;10.20;36.10
6054;DHT22;3055;50.886;14.814;2024-03-25T13:31:19;10.20;23.60
6054;DHT22;3055;50.886;14.814;2024-03-25T13:33:46;10.30;31.80
6054;DHT22;3055;50.886;14.814;2024-03-25T13:36:12;10.30;11.00
6054;DHT22;3055;50.886;14.814;2024-03-25T13:38:38;10.30;1.00
6054;DHT22;3055;50.886;14.814;2024-03-25T13:41:04;10.20;1.00
6054;DHT22;3055;50.886;14.814;2024-03-25T13:43:30;10.20;1.00
6054;DHT22;3055;50.886;14.814;2024-03-25T13:49:07;10.40;1.00
6054;DHT22;3055;50.886;14.814;2024-03-25T13:51:33;10.40;1.00
6054;DHT22;3055;50.886;14.814;2024-03-25T13:53:59;10.50;1.00
6054;DHT22;3055;50.886;14.814;2024-03-25T13:56:25;10.70;1.00
6054;DHT22;3055;50.886;14.814;2024-03-25T13:58:51;10.70;1.00
6054;DHT22;3055;50.886;14.814;2024-03-25T14:01:17;10.70;1.00
6054;DHT22;3055;50.886;14.814;2024-03-25T14:03:44;10.70;1.00
6054;DHT22;3055;50.886;14.814;2024-03-25T14:06:11;10.70;1.00
6054;DHT22;3055;50.886;14.814;2024-03-25T14:08:37;11.00;1.00
6054;DHT22;3055;50.886;14.814;2024-03-25T14:11:03;11.20;1.00
6054;DHT22;3055;50.886;14.814;2024-03-25T14:13:29;11.70;1.00
6054;DHT22;3055;50.886;14.814;2024-03-25T14:15:55;12.00;1.00
6054;DHT22;3055;50.886;14.814;2024-03-25T14:18:21;12.00;1.00
6054;DHT22;3055;50.886;14.814;2024-03-25T14:20:49;11.90;1.00
6054;DHT22;3055;50.886;14.814;2024-03-25T14:23:17;11.70;1.00
6054;DHT22;3055;50.886;14.814;2024-03-25T14:25:43;11.50;1.00
6054;DHT22;3055;50.886;14.814;2024-03-25T14:28:09;11.20;1.00
6054;DHT22;3055;50.886;14.814;2024-03-25T14:30:35;10.90;1.00
6054;DHT22;3055;50.886;14.814;2024-03-25T14:33:02;10.60;1.00
6054;DHT22;3055;50.886;14.814;2024-03-25T14:35:28;10.20;1.00
6054;DHT22;3055;50.886;14.814;2024-03-25T14:37:54;10.00;1.00
6054;DHT22;3055;50.886;14.814;2024-03-25T14:40:21;9.80;1.00
6054;DHT22;3055;50.886;14.814;2024-03-25T14:42:47;9.70;1.00
6054;DHT22;3055;50.886;14.814;2024-03-25T14:45:14;9.70;1.00
6054;DHT22;3055;50.886;14.814;2024-03-25T14:47:40;9.70;1.00
6054;DHT22;3055;50.886;14.814;2024-03-25T14:50:06;9.70;1.00
6054;DHT22;3055;50.886;14.814;2024-03-25T14:52:33;9.70;1.00
6054;DHT22;3055;50.886;14.814;2024-03-25T14:54:59;9.80;1.00
6054;DHT22;3055;50.886;14.814;2024-03-25T14:57:27;10.00;1.00
6054;DHT22;3055;50.886;14.814;2024-03-25T14:59:53;10.00;1.00
6054;DHT22;3055;50.886;14.814;2024-03-25T15:02:19;10.00;1.00
6054;DHT22;3055;50.886;14.814;2024-03-25T15:04:45;10.10;1.00
6054;DHT22;3055;50.886;14.814;2024-03-25T15:07:11;10.20;1.00
6054;DHT22;3055;50.886;14.814;2024-03-25T15:09:37;10.20;1.00
6054;DHT22;3055;50.886;14.814;2024-03-25T15:12:04;10.20;1.00
6054;DHT22;3055;50.886;14.814;2024-03-25T15:14:31;10.10;1.00
6054;DHT22;3055;50.886;14.814;2024-03-25T15:16:57;10.10;1.00
6054;DHT22;3055;50.886;14.814;2024-03-25T15:19:24;10.20;1.00
6054;DHT22;3055;50.886;14.814;2024-03-25T15:21:50;10.30;1.00
6054;DHT22;3055;50.886;14.814;2024-03-25T15:24:16;10.40;1.00
6054;DHT22;3055;50.886;14.814;2024-03-25T15:26:42;11.20;1.00
6054;DHT22;3055;50.886;14.814;2024-03-25T15:29:08;12.30;1.00
6054;DHT22;3055;50.886;14.814;2024-03-25T15:31:36;13.40;1.00
6054;DHT22;3055;50.886;14.814;2024-03-25T15:34:02;14.60;1.00
6054;DHT22;3055;50.886;14.814;2024-03-25T15:36:28;15.60;1.00
6054;DHT22;3055;50.886;14.814;2024-03-25T15:38:54;15.80;1.00
6054;DHT22;3055;50.886;14.814;2024-03-25T15:41:20;15.70;1.00
6054;DHT22;3055;50.886;14.814;2024-03-25T15:43:51;15.30;1.00
6054;DHT22;3055;50.886;14.814;2024-03-25T15:46:17;14.90;1.00
6054;DHT22;3055;50.886;14.814;2024-03-25T15:48:44;14.20;1.00
6054;DHT22;3055;50.886;14.814;2024-03-25T15:51:10;13.40;1.00
6054;DHT22;3055;50.886;14.814;2024-03-25T15:53:36;12.60;1.00
6054;DHT22;3055;50.886;14.814;2024-03-25T15:56:03;12.00;1.00
6054;DHT22;3055;50.886;14.814;2024-03-25T15:58:30;11.50;1.00
6054;DHT22;3055;50.886;14.814;2024-03-25T16:00:56;11.20;1.00
6054;DHT22;3055;50.886;14.814;2024-03-25T16:03:22;10.80;1.00